createdAt,value
2022-08-17T00:00:33.312Z,9.762877
2022-08-17T00:01:14.867Z,9.762877
2022-08-17T00:02:22.439Z,9.762877
2022-08-17T00:03:14.811Z,9.762877
2022-08-17T00:04:13.796Z,9.762877
2022-08-17T00:05:13.795Z,9.762877
2022-08-17T00:06:13.797Z,9.762877
2022-08-17T00:07:13.788Z,9.762877
2022-08-17T00:08:13.769Z,9.762877
2022-08-17T00:09:18.398Z,9.762877
2022-08-17T00:10:14.742Z,9.762877
2022-08-17T00:11:13.743Z,9.762877
2022-08-17T00:12:40.524Z,9.762877
2022-08-17T00:13:14.723Z,9.762877
2022-08-17T00:14:13.692Z,9.762877
2022-08-17T00:15:13.698Z,9.762877
2022-08-17T00:16:13.694Z,9.762877
2022-08-17T00:17:13.693Z,9.762877
2022-08-17T00:18:58.327Z,9.762877
2022-08-17T00:19:14.645Z,9.762877
2022-08-17T00:20:13.645Z,9.762877
2022-08-17T00:21:13.635Z,9.762877
2022-08-17T00:22:32.715Z,9.762877
2022-08-17T00:23:14.625Z,9.762877
2022-08-17T00:24:13.621Z,9.762877
2022-08-17T00:25:13.587Z,9.762877
2022-08-17T00:26:13.575Z,9.762877
2022-08-17T00:27:13.579Z,9.762877
2022-08-17T00:28:13.584Z,9.762877
2022-08-17T00:29:19.629Z,9.762877
2022-08-17T00:30:14.535Z,9.762877
2022-08-17T00:31:13.550Z,9.762877
2022-08-17T00:33:15.648Z,9.762759
2022-08-17T00:33:17.024Z,9.763074
2022-08-17T00:34:13.531Z,9.762614
2022-08-17T00:35:13.533Z,9.762633
2022-08-17T00:36:13.508Z,9.762633
2022-08-17T00:37:13.517Z,9.762633
2022-08-17T00:38:13.480Z,9.762633
2022-08-17T00:39:13.474Z,9.762633
2022-08-17T00:40:13.539Z,9.762633
2022-08-17T00:41:13.445Z,9.762633
2022-08-17T00:42:13.458Z,9.762633
2022-08-17T00:43:13.457Z,9.762633
2022-08-17T00:44:13.432Z,9.762633
2022-08-17T00:45:13.413Z,9.762633
2022-08-17T00:46:13.401Z,9.762633
2022-08-17T00:47:13.399Z,9.762633
2022-08-17T00:48:29.991Z,9.762633
2022-08-17T00:49:14.397Z,9.762633
2022-08-17T00:50:13.371Z,9.762633
2022-08-17T00:51:13.385Z,9.762633
2022-08-17T00:52:13.360Z,9.762633
2022-08-17T00:53:13.346Z,9.763337
2022-08-17T00:54:13.354Z,9.764762
2022-08-17T00:55:13.331Z,9.766662
2022-08-17T00:56:13.338Z,9.765153
2022-08-17T00:57:13.314Z,9.764772
2022-08-17T00:58:13.287Z,9.764772
2022-08-17T00:59:13.307Z,9.764772
2022-08-17T01:00:13.274Z,9.764772
2022-08-17T01:01:13.336Z,9.762439
2022-08-17T01:02:14.253Z,9.762573
2022-08-17T01:03:13.257Z,9.762752
2022-08-17T01:04:13.209Z,9.762766
2022-08-17T01:05:13.206Z,9.762845
2022-08-17T01:06:13.217Z,9.762744
2022-08-17T01:07:13.229Z,9.762672
2022-08-17T01:08:13.171Z,9.762752
2022-08-17T01:09:13.174Z,9.762775
2022-08-17T01:10:57.452Z,9.762801
2022-08-17T01:11:14.150Z,9.762878
2022-08-17T01:12:13.178Z,9.762734
2022-08-17T01:13:13.123Z,9.762725
2022-08-17T01:14:13.140Z,9.762733
2022-08-17T01:15:13.127Z,9.762743
2022-08-17T01:16:13.109Z,9.762746
2022-08-17T01:17:13.116Z,9.762711
2022-08-17T01:18:13.061Z,9.762712
2022-08-17T01:19:13.048Z,9.762805
2022-08-17T01:20:13.049Z,9.762686
2022-08-17T01:21:13.034Z,9.762727
2022-08-17T01:22:13.081Z,9.762714
2022-08-17T01:23:13.041Z,9.762651
2022-08-17T01:24:14.021Z,9.762516
2022-08-17T01:25:13.024Z,9.762639
2022-08-17T01:26:13.025Z,9.762640
2022-08-17T01:27:13.020Z,9.762729
2022-08-17T01:28:12.978Z,9.762758
2022-08-17T01:29:13.957Z,9.762841
2022-08-17T01:30:57.810Z,9.762490
2022-08-17T01:31:13.952Z,9.760968
2022-08-17T01:32:12.959Z,9.750387
2022-08-17T01:33:12.943Z,9.762688
2022-08-17T01:34:12.931Z,9.762784
2022-08-17T01:35:12.922Z,9.762699
2022-08-17T01:36:12.909Z,9.762700
2022-08-17T01:37:12.923Z,9.762671
2022-08-17T01:38:12.878Z,9.762542
2022-08-17T01:39:12.889Z,9.762692
2022-08-17T01:40:12.928Z,9.762654
2022-08-17T01:41:12.851Z,9.762911
2022-08-17T01:42:12.848Z,9.762700
2022-08-17T01:43:12.829Z,9.762588
2022-08-17T01:44:12.829Z,9.762699
2022-08-17T01:45:12.811Z,9.762231
2022-08-17T01:46:12.803Z,9.762737
2022-08-17T01:47:12.809Z,9.763649
2022-08-17T01:48:12.781Z,9.762792
2022-08-17T01:49:12.773Z,9.762687
2022-08-17T01:50:12.763Z,9.762784
2022-08-17T01:51:12.759Z,9.762808
2022-08-17T01:52:12.750Z,9.762749
2022-08-17T01:53:12.726Z,9.762667
2022-08-17T01:54:12.738Z,9.762804
2022-08-17T01:55:12.716Z,9.762922
2022-08-17T01:56:12.703Z,9.762845
2022-08-17T01:57:12.716Z,9.762717
2022-08-17T01:58:12.701Z,9.764549
2022-08-17T01:59:12.668Z,9.763099
2022-08-17T02:00:12.646Z,9.762796
2022-08-17T02:01:12.775Z,9.762693
2022-08-17T02:02:12.690Z,9.762637
2022-08-17T02:03:13.640Z,9.762765
2022-08-17T02:04:12.628Z,9.762694
2022-08-17T02:05:12.632Z,9.762842
2022-08-17T02:06:26.954Z,9.762866
2022-08-17T02:07:13.592Z,9.762734
2022-08-17T02:08:19.779Z,9.762726
2022-08-17T02:09:16.461Z,9.762793
2022-08-17T02:10:18.239Z,9.762908
2022-08-17T02:11:13.548Z,9.762528
2022-08-17T02:12:37.624Z,9.762624
2022-08-17T02:13:13.515Z,9.762723
2022-08-17T02:14:12.498Z,9.762771
2022-08-17T02:15:12.527Z,9.762765
2022-08-17T02:16:12.513Z,9.762961
2022-08-17T02:17:12.532Z,9.762908
2022-08-17T02:18:12.480Z,9.762371
2022-08-17T02:19:12.490Z,9.762746
2022-08-17T02:20:12.467Z,9.762662
2022-08-17T02:21:12.453Z,9.762752
2022-08-17T02:22:12.447Z,9.762758
2022-08-17T02:23:12.442Z,9.762677
2022-08-17T02:24:12.434Z,9.762693
2022-08-17T02:25:12.424Z,9.762734
2022-08-17T02:26:26.081Z,9.762666
2022-08-17T02:27:13.389Z,9.762825
2022-08-17T02:28:12.393Z,9.762889
2022-08-17T02:29:12.376Z,9.762871
2022-08-17T02:30:59.264Z,9.763018
2022-08-17T02:31:13.370Z,9.762933
2022-08-17T02:32:12.347Z,9.762903
2022-08-17T02:33:13.385Z,9.762729
2022-08-17T02:34:12.341Z,9.762547
2022-08-17T02:35:12.323Z,9.762894
2022-08-17T02:36:12.301Z,9.762865
2022-08-17T02:37:12.287Z,9.762815
2022-08-17T02:38:12.284Z,9.762807
2022-08-17T02:39:12.286Z,9.762885
2022-08-17T02:40:12.312Z,9.762994
2022-08-17T02:41:12.255Z,9.762373
2022-08-17T02:42:12.246Z,9.762426
2022-08-17T02:43:12.246Z,9.762821
2022-08-17T02:44:12.221Z,9.762864
2022-08-17T02:45:12.233Z,9.762889
2022-08-17T02:46:12.197Z,9.762828
2022-08-17T02:47:12.205Z,9.762823
2022-08-17T02:48:12.191Z,9.762814
2022-08-17T02:49:12.157Z,9.762523
2022-08-17T02:50:12.192Z,9.762627
2022-08-17T02:51:12.128Z,9.762920
2022-08-17T02:52:12.156Z,9.762902
2022-08-17T02:53:12.166Z,9.762753
2022-08-17T02:54:41.553Z,9.762767
2022-08-17T02:55:13.130Z,9.762762
2022-08-17T02:56:12.141Z,9.762737
2022-08-17T02:57:12.113Z,9.762796
2022-08-17T02:58:12.105Z,9.762844
2022-08-17T02:59:12.099Z,9.762925
2022-08-17T03:00:12.065Z,9.762737
2022-08-17T03:01:12.092Z,9.762843
2022-08-17T03:02:12.031Z,9.762849
2022-08-17T03:03:12.040Z,9.762722
2022-08-17T03:04:12.017Z,9.761933
2022-08-17T03:05:12.013Z,9.760534
2022-08-17T03:06:12.026Z,9.758765
2022-08-17T03:07:11.985Z,9.751911
2022-08-17T03:08:13.371Z,9.744244
2022-08-17T03:09:11.967Z,9.731646
2022-08-17T03:10:11.974Z,9.718657
2022-08-17T03:11:11.972Z,9.717355
2022-08-17T03:12:11.951Z,9.717355
2022-08-17T03:13:11.967Z,9.717355
2022-08-17T03:14:11.955Z,9.717355
2022-08-17T03:15:11.919Z,9.717355
2022-08-17T03:16:11.898Z,9.717355
2022-08-17T03:17:17.066Z,9.717355
2022-08-17T03:18:19.123Z,9.717355
2022-08-17T03:19:12.884Z,9.717355
2022-08-17T03:20:11.875Z,9.717355
2022-08-17T03:21:11.878Z,9.717355
2022-08-17T03:22:35.348Z,9.717355
2022-08-17T03:23:12.868Z,9.717355
2022-08-17T03:24:11.823Z,9.717355
2022-08-17T03:25:11.835Z,9.717355
2022-08-17T03:26:15.246Z,9.717355
2022-08-17T03:27:11.799Z,9.717355
2022-08-17T03:28:11.797Z,9.717355
2022-08-17T03:29:11.789Z,9.717355
2022-08-17T03:30:11.769Z,9.717355
2022-08-17T03:31:11.789Z,9.717355
2022-08-17T03:32:11.736Z,9.717355
2022-08-17T03:33:11.744Z,9.717355
2022-08-17T03:34:11.716Z,9.717355
2022-08-17T03:35:11.734Z,9.717355
2022-08-17T03:36:11.695Z,9.717355
2022-08-17T03:37:11.713Z,9.717355
2022-08-17T03:38:11.706Z,9.717355
2022-08-17T03:39:11.671Z,9.717355
2022-08-17T03:40:11.715Z,9.717355
2022-08-17T03:41:11.645Z,9.717355
2022-08-17T03:42:14.311Z,9.717355
2022-08-17T03:43:12.642Z,9.717355
2022-08-17T03:44:11.613Z,9.717355
2022-08-17T03:45:15.051Z,9.717355
2022-08-17T03:46:27.645Z,9.717355
2022-08-17T03:47:12.590Z,9.717355
2022-08-17T03:48:11.618Z,9.717355
2022-08-17T03:49:11.605Z,9.717355
2022-08-17T03:50:11.569Z,9.717355
2022-08-17T03:51:14.765Z,9.717355
2022-08-17T03:52:12.568Z,9.717355
2022-08-17T03:53:11.580Z,9.717355
2022-08-17T03:54:11.514Z,9.717355
2022-08-17T03:55:11.511Z,9.717355
2022-08-17T03:56:11.509Z,9.717355
2022-08-17T03:57:11.528Z,9.717355
2022-08-17T03:58:11.521Z,9.717355
2022-08-17T03:59:20.896Z,9.717355
2022-08-17T04:00:12.450Z,9.717355
2022-08-17T04:01:11.497Z,9.717355
2022-08-17T04:02:11.491Z,9.717355
2022-08-17T04:03:11.441Z,9.717355
2022-08-17T04:04:11.404Z,9.717355
2022-08-17T04:05:11.388Z,9.717355
2022-08-17T04:06:11.406Z,9.717355
2022-08-17T04:07:11.381Z,9.717355
2022-08-17T04:08:11.384Z,9.717355
2022-08-17T04:09:11.371Z,9.717355
2022-08-17T04:10:11.357Z,9.717355
2022-08-17T04:11:11.345Z,9.717355
2022-08-17T04:12:11.342Z,9.717355
2022-08-17T04:13:11.359Z,9.717355
2022-08-17T04:14:11.324Z,9.717355
2022-08-17T04:15:11.312Z,9.717355
2022-08-17T04:16:11.294Z,9.717355
2022-08-17T04:17:11.292Z,9.717355
2022-08-17T04:18:11.283Z,9.717355
2022-08-17T04:19:11.267Z,9.717355
2022-08-17T04:20:11.252Z,9.717355
2022-08-17T04:21:11.256Z,9.717355
2022-08-17T04:22:11.239Z,9.717355
2022-08-17T04:23:12.235Z,9.717355
2022-08-17T04:24:11.215Z,9.717355
2022-08-17T04:25:11.220Z,9.717355
2022-08-17T04:26:11.214Z,9.717355
2022-08-17T04:27:12.191Z,9.717355
2022-08-17T04:28:16.238Z,9.717355
2022-08-17T04:29:12.250Z,9.717355
2022-08-17T04:30:11.136Z,9.717355
2022-08-17T04:31:11.157Z,9.717355
2022-08-17T04:32:11.142Z,9.717355
2022-08-17T04:33:11.247Z,9.717355
2022-08-17T04:34:11.124Z,9.717355
2022-08-17T04:35:11.122Z,9.717355
2022-08-17T04:36:11.085Z,9.717355
2022-08-17T04:37:11.097Z,9.717355
2022-08-17T04:38:11.086Z,9.717355
2022-08-17T04:39:11.078Z,9.717355
2022-08-17T04:40:11.140Z,9.717355
2022-08-17T04:41:11.062Z,9.717355
2022-08-17T04:42:11.027Z,9.717355
2022-08-17T04:43:11.893Z,9.717355
2022-08-17T04:44:11.010Z,9.717355
2022-08-17T04:45:10.999Z,9.717355
2022-08-17T04:46:11.011Z,9.717355
2022-08-17T04:47:10.999Z,9.717355
2022-08-17T04:48:11.032Z,9.717355
2022-08-17T04:49:11.970Z,9.717355
2022-08-17T04:50:10.949Z,9.717355
2022-08-17T04:51:10.989Z,9.717355
2022-08-17T04:52:11.739Z,9.717355
2022-08-17T04:53:11.909Z,9.717355
2022-08-17T04:54:10.887Z,9.717355
2022-08-17T04:55:10.906Z,9.717355
2022-08-17T04:56:11.890Z,9.717355
2022-08-17T04:57:11.875Z,9.717355
2022-08-17T04:58:10.882Z,9.717355
2022-08-17T04:59:10.873Z,9.717355
2022-08-17T05:00:10.859Z,9.717355
2022-08-17T05:01:10.890Z,9.717355
2022-08-17T05:02:10.871Z,9.717355
2022-08-17T05:03:10.832Z,9.717355
2022-08-17T05:04:21.048Z,9.717355
2022-08-17T05:05:11.803Z,9.717355
2022-08-17T05:06:10.803Z,9.717355
2022-08-17T05:07:10.777Z,9.717355
2022-08-17T05:08:10.805Z,9.717355
2022-08-17T05:09:10.769Z,9.717355
2022-08-17T05:10:10.767Z,9.717355
2022-08-17T05:11:10.800Z,9.717355
2022-08-17T05:12:10.742Z,9.717355
2022-08-17T05:13:10.754Z,9.717355
2022-08-17T05:14:10.724Z,9.717355
2022-08-17T05:15:10.706Z,9.717355
2022-08-17T05:16:10.670Z,9.717355
2022-08-17T05:17:11.195Z,9.717355
2022-08-17T05:18:10.671Z,9.717355
2022-08-17T05:19:10.671Z,9.717355
2022-08-17T05:20:10.651Z,9.717355
2022-08-17T05:21:10.669Z,9.717355
2022-08-17T05:22:10.633Z,9.717355
2022-08-17T05:23:10.623Z,9.717355
2022-08-17T05:24:17.637Z,9.717355
2022-08-17T05:25:11.585Z,9.717355
2022-08-17T05:26:11.691Z,9.717355
2022-08-17T05:27:14.302Z,9.717355
2022-08-17T05:28:11.609Z,9.717355
2022-08-17T05:29:10.614Z,9.717355
2022-08-17T05:30:10.806Z,9.717355
2022-08-17T05:31:10.546Z,9.717355
2022-08-17T05:32:39.173Z,9.717355
2022-08-17T05:33:11.548Z,9.717355
2022-08-17T05:34:10.542Z,9.717355
2022-08-17T05:35:10.506Z,9.717355
2022-08-17T05:36:10.506Z,9.717355
2022-08-17T05:37:11.525Z,9.717355
2022-08-17T05:38:10.498Z,9.717355
2022-08-17T05:39:10.720Z,9.717355
2022-08-17T05:40:11.493Z,9.717355
2022-08-17T05:41:10.460Z,9.717355
2022-08-17T05:42:10.448Z,9.717355
2022-08-17T05:43:10.457Z,9.717355
2022-08-17T05:44:10.430Z,9.717355
2022-08-17T05:45:10.416Z,9.717355
2022-08-17T05:46:10.408Z,9.717355
2022-08-17T05:47:10.412Z,9.717355
2022-08-17T05:48:10.415Z,9.717355
2022-08-17T05:49:10.397Z,9.717355
2022-08-17T05:50:10.397Z,9.717355
2022-08-17T05:51:10.386Z,9.717355
2022-08-17T05:52:10.385Z,9.717355
2022-08-17T05:53:10.384Z,9.717355
2022-08-17T05:54:10.322Z,9.717355
2022-08-17T05:55:10.342Z,9.717355
2022-08-17T05:56:29.138Z,9.717355
2022-08-17T05:57:12.309Z,9.717355
2022-08-17T05:58:10.294Z,9.717355
2022-08-17T05:59:10.267Z,9.717355
2022-08-17T06:00:10.250Z,9.717355
2022-08-17T06:01:10.274Z,9.717355
2022-08-17T06:02:10.251Z,9.769634
2022-08-17T06:03:10.277Z,9.769601
2022-08-17T06:04:10.238Z,9.769796
2022-08-17T06:05:10.251Z,9.769855
2022-08-17T06:06:10.195Z,9.770069
2022-08-17T06:07:10.222Z,9.770322
2022-08-17T06:08:10.236Z,9.905219
2022-08-17T06:09:10.184Z,9.926763
2022-08-17T06:10:10.202Z,9.954497
2022-08-17T06:11:10.189Z,9.977920
2022-08-17T06:12:14.279Z,9.977920
2022-08-17T06:13:11.220Z,9.977920
2022-08-17T06:14:10.145Z,9.977920
2022-08-17T06:15:10.172Z,9.977920
2022-08-17T06:16:33.610Z,9.977920
2022-08-17T06:17:11.128Z,9.977920
2022-08-17T06:18:10.112Z,9.977920
2022-08-17T06:19:10.145Z,9.977920
2022-08-17T06:20:10.105Z,9.762335
2022-08-17T06:21:10.093Z,9.762936
2022-08-17T06:22:11.123Z,9.762291
2022-08-17T06:23:10.082Z,9.762409
2022-08-17T06:24:10.069Z,9.762775
2022-08-17T06:25:10.912Z,9.763005
2022-08-17T06:26:10.031Z,9.762966
2022-08-17T06:27:10.032Z,9.762749
2022-08-17T06:28:10.028Z,9.762816
2022-08-17T06:29:10.054Z,9.763021
2022-08-17T06:30:10.970Z,9.762837
2022-08-17T06:31:09.977Z,9.762893
2022-08-17T06:32:09.968Z,9.762881
2022-08-17T06:33:09.978Z,9.762757
2022-08-17T06:34:09.965Z,9.762784
2022-08-17T06:35:10.929Z,9.762644
2022-08-17T06:36:09.973Z,9.762505
2022-08-17T06:37:09.916Z,9.762789
2022-08-17T06:38:09.925Z,9.762873
2022-08-17T06:39:10.918Z,9.762556
2022-08-17T06:40:09.953Z,9.762651
2022-08-17T06:41:09.882Z,9.762664
2022-08-17T06:42:09.863Z,9.762803
2022-08-17T06:43:10.982Z,9.762781
2022-08-17T06:44:09.878Z,9.762762
2022-08-17T06:45:09.825Z,9.762837
2022-08-17T06:46:09.816Z,9.762682
2022-08-17T06:47:09.815Z,9.763243
2022-08-17T06:48:09.799Z,9.762824
2022-08-17T06:49:09.808Z,9.762758
2022-08-17T06:50:09.793Z,9.762619
2022-08-17T06:51:09.768Z,9.762611
2022-08-17T06:52:09.800Z,9.762630
2022-08-17T06:53:09.759Z,9.762708
2022-08-17T06:54:09.786Z,9.762605
2022-08-17T06:55:09.733Z,9.762706
2022-08-17T06:56:10.775Z,9.762736
2022-08-17T06:57:09.711Z,9.762776
2022-08-17T06:58:15.562Z,9.762637
2022-08-17T06:59:10.713Z,9.762771
2022-08-17T07:00:09.695Z,9.762765
2022-08-17T07:01:09.825Z,9.762833
2022-08-17T07:02:09.880Z,9.763481
2022-08-17T07:03:10.118Z,9.762294
2022-08-17T07:04:12.178Z,9.763123
2022-08-17T07:05:09.666Z,9.762753
2022-08-17T07:06:09.704Z,9.762775
2022-08-17T07:07:09.690Z,9.762731
2022-08-17T07:08:09.614Z,9.762626
2022-08-17T07:09:09.628Z,9.762837
2022-08-17T07:10:09.616Z,9.763141
2022-08-17T07:11:10.381Z,9.763608
2022-08-17T07:12:09.597Z,9.763048
2022-08-17T07:13:09.568Z,9.762899
2022-08-17T07:14:12.804Z,9.762744
2022-08-17T07:15:10.545Z,9.762760
2022-08-17T07:16:09.556Z,9.762742
2022-08-17T07:17:09.513Z,9.762530
2022-08-17T07:18:09.534Z,9.762792
2022-08-17T07:19:10.925Z,9.762918
2022-08-17T07:20:09.508Z,9.762606
2022-08-17T07:21:11.087Z,9.762662
2022-08-17T07:22:09.537Z,9.762900
2022-08-17T07:23:09.471Z,9.762854
2022-08-17T07:24:09.500Z,9.762877
2022-08-17T07:25:10.465Z,9.762779
2022-08-17T07:26:10.437Z,9.762747
2022-08-17T07:27:09.442Z,9.762921
2022-08-17T07:28:09.447Z,9.762836
2022-08-17T07:29:09.445Z,9.763224
2022-08-17T07:30:10.875Z,9.762845
2022-08-17T07:31:10.420Z,9.762756
2022-08-17T07:32:09.428Z,9.762693
2022-08-17T07:33:09.424Z,9.762667
2022-08-17T07:34:09.415Z,9.762629
2022-08-17T07:35:10.894Z,9.762842
2022-08-17T07:36:09.417Z,9.762784
2022-08-17T07:37:09.315Z,9.762847
2022-08-17T07:38:24.988Z,9.762787
2022-08-17T07:39:10.397Z,9.762730
2022-08-17T07:40:15.039Z,9.762740
2022-08-17T07:41:10.338Z,9.762604
2022-08-17T07:42:09.310Z,9.762609
2022-08-17T07:43:09.278Z,9.762715
2022-08-17T07:44:10.309Z,9.762818
2022-08-17T07:45:09.226Z,9.762796
2022-08-17T07:46:09.286Z,9.762772
2022-08-17T07:47:09.253Z,9.762742
2022-08-17T07:48:09.227Z,9.762711
2022-08-17T07:49:09.245Z,9.762634
2022-08-17T07:50:09.201Z,9.762759
2022-08-17T07:51:09.186Z,9.762797
2022-08-17T07:52:48.211Z,9.762830
2022-08-17T07:53:10.150Z,9.762833
2022-08-17T07:54:14.493Z,9.762843
2022-08-17T07:55:11.244Z,9.762704
2022-08-17T07:56:09.182Z,9.762937
2022-08-17T07:57:10.168Z,9.762969
2022-08-17T07:58:09.197Z,9.762740
2022-08-17T07:59:09.122Z,9.762743
2022-08-17T08:00:10.711Z,9.762828
2022-08-17T08:01:10.094Z,9.762818
2022-08-17T08:02:10.156Z,9.762837
2022-08-17T08:03:09.082Z,9.762780
2022-08-17T08:04:09.079Z,9.762840
2022-08-17T08:05:09.118Z,9.763022
2022-08-17T08:06:09.060Z,9.762854
2022-08-17T08:07:09.056Z,9.762672
2022-08-17T08:08:09.028Z,9.762918
2022-08-17T08:09:08.993Z,9.762867
2022-08-17T08:10:09.038Z,9.762848
2022-08-17T08:11:09.034Z,9.762750
2022-08-17T08:12:08.981Z,9.762807
2022-08-17T08:13:12.243Z,9.763012
2022-08-17T08:14:08.965Z,9.763060
2022-08-17T08:15:08.974Z,9.762692
2022-08-17T08:16:08.978Z,9.763000
2022-08-17T08:17:09.422Z,9.763077
2022-08-17T08:18:08.933Z,9.763162
2022-08-17T08:19:08.961Z,9.762723
2022-08-17T08:20:37.782Z,9.762424
2022-08-17T08:21:09.938Z,9.762611
2022-08-17T08:22:08.897Z,9.762569
2022-08-17T08:23:08.895Z,9.762679
2022-08-17T08:24:08.890Z,9.762798
2022-08-17T08:25:08.896Z,9.762999
2022-08-17T08:26:08.851Z,9.762953
2022-08-17T08:27:08.884Z,9.762751
2022-08-17T08:28:08.852Z,9.762805
2022-08-17T08:29:08.856Z,9.762826
2022-08-17T08:30:08.859Z,9.762759
2022-08-17T08:31:08.851Z,9.762849
2022-08-17T08:32:08.978Z,9.763008
2022-08-17T08:33:08.770Z,9.762743
2022-08-17T08:34:08.765Z,9.762935
2022-08-17T08:35:09.816Z,9.762446
2022-08-17T08:36:08.736Z,9.762631
2022-08-17T08:37:16.283Z,9.762499
2022-08-17T08:38:09.716Z,9.762719
2022-08-17T08:39:09.819Z,9.762764
2022-08-17T08:40:08.830Z,9.762856
2022-08-17T08:41:08.792Z,9.762811
2022-08-17T08:42:08.762Z,9.762844
2022-08-17T08:43:08.767Z,9.762753
2022-08-17T08:44:08.706Z,9.762495
2022-08-17T08:45:08.711Z,9.762418
2022-08-17T08:46:08.747Z,9.762282
2022-08-17T08:47:08.700Z,9.762751
2022-08-17T08:48:22.962Z,9.762648
2022-08-17T08:49:10.253Z,9.762354
2022-08-17T08:50:08.660Z,9.762656
2022-08-17T08:51:09.671Z,9.762795
2022-08-17T08:52:08.634Z,9.762771
2022-08-17T08:53:08.605Z,9.761789
2022-08-17T08:54:08.701Z,9.762094
2022-08-17T08:55:08.702Z,9.762276
2022-08-17T08:56:08.674Z,9.762060
2022-08-17T08:57:29.213Z,9.762887
2022-08-17T08:58:31.691Z,9.762799
2022-08-17T08:59:09.538Z,9.762833
2022-08-17T09:00:08.575Z,9.762839
2022-08-17T09:01:08.575Z,9.762773
2022-08-17T09:02:09.661Z,9.762672
2022-08-17T09:03:08.573Z,9.762714
2022-08-17T09:04:23.348Z,9.762976
2022-08-17T09:05:14.304Z,9.762952
2022-08-17T09:06:32.590Z,9.763150
2022-08-17T09:07:09.548Z,9.762865
2022-08-17T09:08:08.527Z,9.762951
2022-08-17T09:09:08.468Z,9.762691
2022-08-17T09:10:08.530Z,9.762632
2022-08-17T09:11:08.524Z,9.762680
2022-08-17T09:12:08.453Z,9.762687
2022-08-17T09:13:10.097Z,9.762223
2022-08-17T09:14:21.573Z,9.762465
2022-08-17T09:15:12.848Z,9.762550
2022-08-17T09:16:09.417Z,9.762657
2022-08-17T09:17:08.477Z,9.762607
2022-08-17T09:19:02.256Z,9.762666
2022-08-17T09:19:10.405Z,9.762813
2022-08-17T09:20:08.418Z,9.762821
2022-08-17T09:21:08.418Z,9.762880
2022-08-17T09:22:08.414Z,9.762914
2022-08-17T09:23:08.457Z,9.762723
2022-08-17T09:24:08.345Z,9.762733
2022-08-17T09:25:08.392Z,9.762859
2022-08-17T09:26:08.379Z,9.762769
2022-08-17T09:27:08.380Z,9.762794
2022-08-17T09:28:08.375Z,9.762867
2022-08-17T09:29:08.319Z,9.762740
2022-08-17T09:30:08.353Z,9.762686
2022-08-17T09:31:08.327Z,9.762692
2022-08-17T09:32:08.396Z,9.762768
2022-08-17T09:33:08.261Z,9.762789
2022-08-17T09:34:08.308Z,9.762850
2022-08-17T09:35:08.263Z,9.762772
2022-08-17T09:36:08.288Z,9.762805
2022-08-17T09:37:08.240Z,9.762509
2022-08-17T09:38:08.196Z,9.762548
2022-08-17T09:39:08.248Z,9.762598
2022-08-17T09:40:08.334Z,9.762965
2022-08-17T09:41:08.216Z,9.762712
2022-08-17T09:42:08.213Z,9.762690
2022-08-17T09:43:08.218Z,9.762641
2022-08-17T09:44:23.602Z,9.762895
2022-08-17T09:45:10.191Z,9.762642
2022-08-17T09:46:08.180Z,9.762752
2022-08-17T09:47:08.205Z,9.762763
2022-08-17T09:48:08.179Z,9.762711
2022-08-17T09:49:08.132Z,9.762863
2022-08-17T09:50:08.213Z,9.762943
2022-08-17T09:51:08.146Z,9.762964
2022-08-17T09:52:08.206Z,9.762889
2022-08-17T09:53:08.120Z,9.762837
2022-08-17T09:54:36.945Z,9.762811
2022-08-17T09:55:10.106Z,9.762839
2022-08-17T09:56:08.134Z,9.762755
2022-08-17T09:57:28.552Z,9.762767
2022-08-17T09:58:10.064Z,9.762884
2022-08-17T09:59:08.062Z,9.762882
2022-08-17T10:00:08.041Z,9.762778
2022-08-17T10:01:08.141Z,9.762808
2022-08-17T10:02:08.052Z,9.762691
2022-08-17T10:03:09.067Z,9.762811
2022-08-17T10:04:08.036Z,9.762798
2022-08-17T10:05:08.020Z,9.762701
2022-08-17T10:06:08.003Z,9.762768
2022-08-17T10:07:08.043Z,9.762831
2022-08-17T10:08:07.948Z,9.762811
2022-08-17T10:09:07.981Z,9.762800
2022-08-17T10:10:12.153Z,9.762817
2022-08-17T10:11:09.966Z,9.762752
2022-08-17T10:12:09.266Z,9.762899
2022-08-17T10:13:09.540Z,9.762965
2022-08-17T10:14:36.535Z,9.763199
2022-08-17T10:15:09.541Z,9.762787
2022-08-17T10:16:07.894Z,9.762625
2022-08-17T10:17:07.888Z,9.762902
2022-08-17T10:18:07.891Z,9.762464
2022-08-17T10:19:07.868Z,9.762331
2022-08-17T10:20:07.869Z,9.762578
2022-08-17T10:21:07.890Z,9.762632
2022-08-17T10:22:14.614Z,9.762715
2022-08-17T10:23:08.833Z,9.762358
2022-08-17T10:24:07.846Z,9.762136
2022-08-17T10:25:22.793Z,9.762512
2022-08-17T10:26:08.818Z,9.763025
2022-08-17T10:27:07.827Z,9.761806
2022-08-17T10:28:09.800Z,9.762049
2022-08-17T10:29:08.761Z,9.761992
2022-08-17T10:30:07.807Z,9.762271
2022-08-17T10:31:33.794Z,9.762406
2022-08-17T10:32:09.730Z,9.762490
2022-08-17T10:33:07.743Z,9.762284
2022-08-17T10:34:07.704Z,9.762671
2022-08-17T10:35:07.714Z,9.762977
2022-08-17T10:36:10.812Z,9.763028
2022-08-17T10:37:09.045Z,9.762491
2022-08-17T10:38:07.734Z,9.762696
2022-08-17T10:39:07.725Z,9.763039
2022-08-17T10:40:07.814Z,9.763173
2022-08-17T10:41:07.689Z,9.762774
2022-08-17T10:42:07.715Z,9.762721
2022-08-17T10:43:08.673Z,9.762890
2022-08-17T10:44:40.272Z,9.763231
2022-08-17T10:45:08.640Z,9.762690
2022-08-17T10:46:10.581Z,9.763177
2022-08-17T10:47:08.670Z,9.763232
2022-08-17T10:48:07.883Z,9.763822
2022-08-17T10:49:07.604Z,9.763730
2022-08-17T10:50:07.573Z,9.763349
2022-08-17T10:51:07.635Z,9.762860
2022-08-17T10:52:07.609Z,9.762931
2022-08-17T10:53:07.580Z,9.765426
2022-08-17T10:54:07.576Z,9.763115
2022-08-17T10:55:07.549Z,9.763069
2022-08-17T10:56:07.568Z,9.762959
2022-08-17T10:57:07.578Z,9.762693
2022-08-17T10:58:07.523Z,9.762444
2022-08-17T10:59:07.524Z,9.762740
2022-08-17T11:00:07.515Z,9.762938
2022-08-17T11:01:07.607Z,9.762781
2022-08-17T11:02:07.505Z,9.762798
2022-08-17T11:03:07.559Z,9.762885
2022-08-17T11:04:07.480Z,9.763043
2022-08-17T11:05:07.464Z,9.762874
2022-08-17T11:06:07.490Z,9.762820
2022-08-17T11:07:07.453Z,9.762834
2022-08-17T11:08:07.441Z,9.762939
2022-08-17T11:09:07.483Z,9.762826
2022-08-17T11:10:07.426Z,9.762902
2022-08-17T11:11:07.471Z,9.763088
2022-08-17T11:12:07.451Z,9.762981
2022-08-17T11:13:07.421Z,9.762781
2022-08-17T11:14:07.376Z,9.762821
2022-08-17T11:15:07.391Z,9.762928
2022-08-17T11:16:08.556Z,9.762731
2022-08-17T11:17:08.410Z,9.762729
2022-08-17T11:18:07.378Z,9.762753
2022-08-17T11:19:07.331Z,9.762837
2022-08-17T11:20:07.329Z,9.762870
2022-08-17T11:21:07.356Z,9.762833
2022-08-17T11:22:07.307Z,9.762746
2022-08-17T11:23:07.373Z,9.762788
2022-08-17T11:24:07.310Z,9.762818
2022-08-17T11:25:07.316Z,9.762856
2022-08-17T11:26:07.264Z,9.762838
2022-08-17T11:27:07.328Z,9.762877
2022-08-17T11:28:07.264Z,9.762822
2022-08-17T11:29:07.273Z,9.762831
2022-08-17T11:30:07.248Z,9.762902
2022-08-17T11:31:07.527Z,9.763180
2022-08-17T11:32:07.262Z,9.762683
2022-08-17T11:33:07.329Z,9.762802
2022-08-17T11:34:07.269Z,9.762282
2022-08-17T11:35:07.219Z,9.762752
2022-08-17T11:36:07.200Z,9.762798
2022-08-17T11:37:07.169Z,9.762768
2022-08-17T11:38:10.836Z,9.762855
2022-08-17T11:39:09.227Z,9.762628
2022-08-17T11:40:07.292Z,9.762856
2022-08-17T11:41:07.180Z,9.762764
2022-08-17T11:42:08.171Z,9.762855
2022-08-17T11:43:07.118Z,9.762862
2022-08-17T11:44:07.109Z,9.762835